首页
METAR-TAF:

METAR-TAF

机场 :

巴林国际机场

巴林, 巴林

纬度: 26-16N, 经度: 050-39E, 海拔: 2米

当前天气观测

该预报发布于20分钟前的23:30 UTC
风速7节,风向
温度 29°C
湿度 74%
气压 1014 hPa
能见度10公里或以上
1500米以下无云,无积雨云

METAR: OBBI 212330Z 10007KT CAVOK 29/24 Q1014 NOSIG

时间: 02:50 (23:50 UTC)

预报

该预报发布于50分钟前的23:00 UTC
预报有效从22日的 00点(UTC)到 23日的 06点(UTC)
风速8节,风向
能見度: 8000
几率 30% :
短暂存在
从 22日的 06点(UTC)到 22日的 15点(UTC)
风速17节,风向北转西北,有时为27节阵风
能見度: 4000
散云层高于3000英尺, 积雨云.
多云层高于10000英尺
雷暴, 雨

TAF: OBBI 212300Z 2200/2306 10008KT 8000 NSC PROB30 TEMPO 2206/2215 34017G27KT 4000 TSRA SCT030CB BKN100

超过4000个机场的气象观测和天气预报(METAR&TAF报告)。

可查询的气象台以黄色和红色小点在地图上表示。

将鼠标移到小点上方,可查看气象台名称。

然后点击查看天气观测和预报。

如需切换地图:点击带黑十字的绿色按钮放大地图;点击带横线的绿色按钮缩小地图;或者点击绿色箭头查看邻近地区的地图。


METAR-TAF: